Time;durP1;ratioP1;P1;durP2;ratioP2;P2;SDS_P1;SDS_P2;PMS_P1;PMS_P2;Temp;Humidity;BMP_temperature;BMP_pressure;BME280_temperature;BME280_humidity;BME280_pressure;Samples;Min_cycle;Max_cycle;Signal;HPM_P1;HPM_P2
2022/11/21 00:01:31;;;;;;;76.53;32.57;;;-2.50;99.90;;;;;;4774644;30;20251;-87
2022/11/21 00:03:58;;;;;;;85.20;33.83;;;-2.50;99.90;;;;;;4788546;29;20217;-86
2022/11/21 00:06:26;;;;;;;87.13;34.07;;;-2.40;99.90;;;;;;4774892;30;20242;-87
2022/11/21 00:08:54;;;;;;;84.57;33.70;;;-2.40;99.90;;;;;;4773688;30;20212;-87
2022/11/21 00:11:23;;;;;;;78.30;32.73;;;-2.40;99.90;;;;;;4791121;29;20610;-88
2022/11/21 00:13:50;;;;;;;86.17;33.77;;;-2.30;99.90;;;;;;4773470;30;20336;-87
2022/11/21 00:16:17;;;;;;;94.30;34.53;;;-2.30;99.90;;;;;;4789827;29;20199;-88
2022/11/21 00:18:44;;;;;;;82.67;33.63;;;-2.30;99.90;;;;;;4774243;30;20213;-87
2022/11/21 00:21:16;;;;;;;90.57;35.70;;;-2.30;99.90;;;;;;4773637;29;20209;-87
2022/11/21 00:23:44;;;;;;;85.67;34.97;;;-2.30;99.90;;;;;;4774070;30;20234;-86
2022/11/21 00:26:13;;;;;;;86.33;34.03;;;-2.20;99.90;;;;;;4773828;30;20211;-85
2022/11/21 00:28:44;;;;;;;86.20;33.63;;;-2.30;99.90;;;;;;4773590;30;20211;-85
2022/11/21 00:31:22;;;;;;;85.83;34.30;;;-2.20;99.90;;;;;;4789631;29;20194;-86
2022/11/21 00:33:52;;;;;;;86.57;33.83;;;-2.10;99.90;;;;;;4789996;29;20209;-85
2022/11/21 00:36:19;;;;;;;79.33;32.90;;;-2.00;99.90;;;;;;4773344;30;20226;-86
2022/11/21 00:38:46;;;;;;;87.37;33.70;;;-2.00;99.90;;;;;;4789885;29;20200;-85
2022/11/21 00:41:13;;;;;;;80.97;32.40;;;-2.00;99.90;;;;;;4789646;29;20287;-85
2022/11/21 00:43:40;;;;;;;85.43;35.23;;;-2.00;99.90;;;;;;4773542;30;20226;-85
2022/11/21 00:46:07;;;;;;;92.17;35.03;;;-2.00;99.90;;;;;;4773767;30;20685;-85
2022/11/21 00:48:34;;;;;;;85.97;33.97;;;-2.00;99.90;;;;;;4773544;30;20210;-87
2022/11/21 00:51:00;;;;;;;92.40;34.57;;;-1.90;99.90;;;;;;4773172;30;20259;-87
2022/11/21 00:53:28;;;;;;;89.20;34.33;;;-2.00;99.90;;;;;;4773535;30;20251;-86
2022/11/21 00:55:56;;;;;;;93.67;35.63;;;-2.00;99.90;;;;;;4772752;30;20236;-86
2022/11/21 00:58:23;;;;;;;87.97;34.80;;;-2.10;99.90;;;;;;4789757;29;20201;-85
2022/11/21 01:00:50;;;;;;;91.23;34.90;;;-2.00;99.90;;;;;;4773258;30;20236;-85
2022/11/21 01:03:17;;;;;;;92.00;35.07;;;-2.00;99.90;;;;;;4772954;30;20236;-84
2022/11/21 01:05:44;;;;;;;87.97;34.27;;;-2.10;99.90;;;;;;4772910;30;20206;-85
2022/11/21 01:08:11;;;;;;;89.40;34.47;;;-2.10;99.90;;;;;;4773016;29;20209;-83
2022/11/21 01:10:38;;;;;;;97.17;36.30;;;-2.20;99.90;;;;;;4772927;30;20224;-84
2022/11/21 01:13:05;;;;;;;86.27;34.03;;;-2.20;99.90;;;;;;4773104;29;20234;-84
2022/11/21 01:15:32;;;;;;;90.10;35.90;;;-2.30;99.90;;;;;;4790268;29;20546;-87
2022/11/21 01:18:02;;;;;;;86.70;34.10;;;-2.20;99.90;;;;;;4773173;30;20773;-85
2022/11/21 01:20:29;;;;;;;92.03;36.57;;;-2.20;99.90;;;;;;4757591;30;20212;-85
2022/11/21 01:22:56;;;;;;;88.50;33.37;;;-2.20;99.90;;;;;;4772988;29;20581;-85
2022/11/21 01:25:22;;;;;;;86.87;34.10;;;-2.20;99.90;;;;;;4789010;30;20208;-86
2022/11/21 01:27:49;;;;;;;89.43;34.53;;;-2.20;99.90;;;;;;4788821;29;20293;-86
2022/11/21 01:30:16;;;;;;;93.27;35.73;;;-2.10;99.90;;;;;;4789141;29;20268;-84
2022/11/21 01:32:47;;;;;;;86.73;35.30;;;-2.20;99.90;;;;;;4775167;30;20213;-86
2022/11/21 01:35:15;;;;;;;90.67;34.80;;;-2.10;99.90;;;;;;4772154;30;20266;-85
2022/11/21 01:37:42;;;;;;;88.30;34.43;;;-2.20;99.90;;;;;;4772845;29;20216;-88
2022/11/21 01:40:10;;;;;;;89.67;35.23;;;-2.10;99.90;;;;;;4772519;30;20205;-86
2022/11/21 01:43:03;;;;;;;87.07;34.90;;;-2.10;99.90;;;;;;4772657;30;20261;-87
2022/11/21 01:45:54;;;;;;;89.00;34.80;;;-2.10;99.90;;;;;;4772165;30;20736;-85
2022/11/21 01:48:46;;;;;;;86.37;33.63;;;-2.10;99.90;;;;;;4772503;29;20291;-87
2022/11/21 01:51:22;;;;;;;87.60;33.50;;;-2.10;99.90;;;;;;4772337;30;20682;-86
2022/11/21 01:54:30;;;;;;;91.50;35.97;;;-2.10;99.90;;;;;;4772260;30;20232;-86
2022/11/21 01:57:22;;;;;;;90.97;34.10;;;-2.10;99.90;;;;;;4735916;30;20205;-87
2022/11/21 02:00:03;;;;;;;92.53;34.30;;;-2.20;99.90;;;;;;4750935;30;20233;-88
2022/11/21 02:02:38;;;;;;;82.47;34.23;;;-2.20;99.90;;;;;;4750529;30;20632;-86
2022/11/21 02:05:10;;;;;;;88.13;35.53;;;-2.20;99.90;;;;;;4750464;30;20215;-86
2022/11/21 02:07:41;;;;;;;85.23;34.50;;;-2.30;99.90;;;;;;4749851;30;20209;-82
2022/11/21 02:10:09;;;;;;;91.50;34.77;;;-2.40;99.90;;;;;;4750492;30;20194;-82
2022/11/21 02:12:49;;;;;;;88.67;34.33;;;-2.50;99.90;;;;;;4750456;30;20225;-86
2022/11/21 02:15:17;;;;;;;87.43;33.93;;;-2.50;99.90;;;;;;4750690;30;20684;-85
2022/11/21 02:17:44;;;;;;;86.27;35.23;;;-2.50;99.90;;;;;;4750995;30;20294;-84
2022/11/21 02:20:16;;;;;;;92.17;34.53;;;-2.50;99.90;;;;;;4735671;30;20303;-84
2022/11/21 02:22:54;;;;;;;92.23;35.13;;;-2.60;99.90;;;;;;4750383;30;20207;-82
2022/11/21 02:25:33;;;;;;;88.87;34.47;;;-2.60;99.90;;;;;;4750104;30;20249;-83
2022/11/21 02:28:05;;;;;;;82.17;33.27;;;-2.60;99.90;;;;;;4735570;30;20210;-86
2022/11/21 02:30:36;;;;;;;85.40;34.53;;;-2.60;99.90;;;;;;4747266;30;20554;-83
2022/11/21 02:33:04;;;;;;;91.40;34.37;;;-2.60;99.90;;;;;;4771629;30;20571;-84
2022/11/21 02:35:32;;;;;;;90.33;35.73;;;-2.60;99.90;;;;;;4788186;29;20711;-83
2022/11/21 02:38:38;;;;;;;93.00;35.07;;;-2.60;99.90;;;;;;4771764;29;20205;-82
2022/11/21 02:41:17;;;;;;;89.67;34.63;;;-2.70;99.90;;;;;;4735510;30;20579;-83
2022/11/21 02:43:49;;;;;;;84.43;34.70;;;-2.70;99.90;;;;;;4750552;30;20205;-84
2022/11/21 02:46:16;;;;;;;96.27;36.03;;;-2.90;99.90;;;;;;4750015;30;20310;-85
2022/11/21 02:48:43;;;;;;;93.57;36.23;;;-3.00;99.90;;;;;;4735231;30;20206;-85
2022/11/21 02:51:10;;;;;;;92.23;35.67;;;-2.90;99.90;;;;;;4753838;30;20210;-85
2022/11/21 02:53:37;;;;;;;95.20;36.00;;;-3.00;99.90;;;;;;4749903;30;20245;-83
2022/11/21 02:56:04;;;;;;;97.67;36.50;;;-2.90;99.90;;;;;;4749773;30;20234;-84
2022/11/21 02:58:31;;;;;;;88.57;35.80;;;-3.10;99.90;;;;;;4750235;30;20294;-87
2022/11/21 03:00:58;;;;;;;94.90;36.13;;;-3.10;99.90;;;;;;4735277;30;20329;-87
2022/11/21 03:03:25;;;;;;;99.77;37.17;;;-3.10;99.90;;;;;;4749861;30;20688;-87
2022/11/21 03:05:52;;;;;;;92.13;36.30;;;-3.00;99.90;;;;;;4735149;30;20222;-84
2022/11/21 03:08:19;;;;;;;96.80;36.03;;;-3.10;99.90;;;;;;4750059;30;20209;-84
2022/11/21 03:10:45;;;;;;;93.97;36.00;;;-3.10;99.90;;;;;;4750351;30;20225;-84
2022/11/21 03:13:13;;;;;;;85.97;35.10;;;-3.10;99.90;;;;;;4750168;30;20308;-84
2022/11/21 03:15:40;;;;;;;89.33;34.83;;;-3.10;99.90;;;;;;4735095;30;20563;-84
2022/11/21 03:18:06;;;;;;;93.07;35.37;;;-3.00;99.90;;;;;;4776758;30;20200;-84
2022/11/21 03:20:34;;;;;;;93.67;35.83;;;-3.10;99.90;;;;;;4759510;30;20219;-85
2022/11/21 03:23:01;;;;;;;94.77;36.17;;;-3.10;99.90;;;;;;4774923;29;20211;-86
2022/11/21 03:25:28;;;;;;;90.40;34.80;;;-3.10;99.90;;;;;;4789569;30;20205;-88
2022/11/21 03:27:56;;;;;;;94.03;36.37;;;-3.20;99.90;;;;;;4774690;30;20212;-85
2022/11/21 03:30:24;;;;;;;108.43;37.80;;;-3.30;99.90;;;;;;4774585;30;20204;-87
2022/11/21 03:32:55;;;;;;;89.77;35.90;;;-3.50;99.90;;;;;;4790638;29;20197;-87
2022/11/21 03:35:22;;;;;;;98.03;37.53;;;-3.60;99.90;;;;;;4774543;30;20208;-87
2022/11/21 03:37:49;;;;;;;96.50;36.47;;;-3.50;99.90;;;;;;4774677;30;20207;-87
2022/11/21 03:40:16;;;;;;;94.77;36.27;;;-3.40;99.90;;;;;;4774256;30;20259;-86
2022/11/21 03:42:43;;;;;;;95.77;36.90;;;-3.50;99.90;;;;;;4774558;30;20552;-85
2022/11/21 03:45:10;;;;;;;100.27;36.90;;;-3.50;99.90;;;;;;4775097;30;20213;-87
2022/11/21 03:47:37;;;;;;;103.00;37.37;;;-3.50;99.90;;;;;;4774540;30;20208;-87
2022/11/21 03:50:04;;;;;;;92.67;35.33;;;-3.40;99.90;;;;;;4774700;30;20272;-82
2022/11/21 03:52:32;;;;;;;98.40;36.37;;;-3.40;99.90;;;;;;4774699;30;20209;-87
2022/11/21 03:55:01;;;;;;;89.50;36.30;;;-3.40;99.90;;;;;;4790302;29;20319;-87
2022/11/21 03:57:28;;;;;;;95.83;36.40;;;-3.40;99.90;;;;;;4774130;30;20207;-83
2022/11/21 03:59:55;;;;;;;91.97;35.73;;;-3.60;99.90;;;;;;4790228;29;20259;-84
2022/11/21 04:02:22;;;;;;;98.30;36.20;;;-3.60;99.90;;;;;;4774205;30;20602;-84
2022/11/21 04:04:49;;;;;;;99.60;35.63;;;-3.50;99.90;;;;;;4774068;30;20396;-84
2022/11/21 04:07:16;;;;;;;100.80;37.13;;;-3.50;99.90;;;;;;4790148;29;20302;-83
2022/11/21 04:09:43;;;;;;;91.70;34.77;;;-3.50;99.90;;;;;;4773677;30;20304;-86
2022/11/21 04:12:09;;;;;;;93.97;35.07;;;-3.40;99.90;;;;;;4773906;30;20633;-85
2022/11/21 04:14:36;;;;;;;89.10;35.03;;;-3.50;99.90;;;;;;4773889;30;20263;-83
2022/11/21 04:17:03;;;;;;;91.73;34.83;;;-3.50;99.90;;;;;;4789832;29;20200;-84
2022/11/21 04:19:30;;;;;;;92.60;34.83;;;-3.50;99.90;;;;;;4773573;30;20212;-82
2022/11/21 04:21:57;;;;;;;92.90;35.10;;;-3.60;99.90;;;;;;4790399;29;20215;-82
2022/11/21 04:24:24;;;;;;;86.60;34.40;;;-3.60;99.90;;;;;;4774209;30;20227;-84
2022/11/21 04:26:54;;;;;;;95.17;35.77;;;-3.60;99.90;;;;;;4774862;30;20553;-85
2022/11/21 04:29:21;;;;;;;96.00;35.80;;;-3.50;99.90;;;;;;4759626;30;20243;-86
2022/11/21 04:31:48;;;;;;;91.67;34.53;;;-3.40;99.90;;;;;;4773103;29;20292;-86
2022/11/21 04:34:15;;;;;;;92.70;34.40;;;-3.30;99.90;;;;;;4790211;29;20230;-86
2022/11/21 04:36:42;;;;;;;93.77;34.60;;;-3.40;99.90;;;;;;4773430;30;20200;-84
2022/11/21 04:39:09;;;;;;;95.13;36.47;;;-3.40;99.90;;;;;;4789561;29;20203;-83
2022/11/21 04:41:36;;;;;;;87.47;34.30;;;-3.40;99.90;;;;;;4774146;30;20204;-87
2022/11/21 04:44:03;;;;;;;94.57;35.43;;;-3.40;99.90;;;;;;4773751;30;20251;-87
2022/11/21 04:46:30;;;;;;;86.77;33.47;;;-3.40;99.90;;;;;;4773370;30;20659;-86
2022/11/21 04:48:57;;;;;;;95.33;35.17;;;-3.40;99.90;;;;;;4773125;30;20209;-85
2022/11/21 04:51:24;;;;;;;94.90;35.00;;;-3.40;99.90;;;;;;4775682;30;20228;-86
2022/11/21 04:53:51;;;;;;;82.23;33.70;;;-3.40;99.90;;;;;;4775548;30;20224;-86
2022/11/21 04:56:18;;;;;;;90.87;33.90;;;-3.40;99.90;;;;;;4774841;30;20560;-88
2022/11/21 04:58:44;;;;;;;81.10;33.90;;;-3.40;99.90;;;;;;4778778;30;20295;-86
2022/11/21 05:01:11;;;;;;;92.07;33.43;;;-3.50;99.90;;;;;;4777905;30;20313;-85
2022/11/21 05:03:39;;;;;;;85.93;33.63;;;-3.60;99.90;;;;;;4777449;30;20212;-85
2022/11/21 05:06:06;;;;;;;87.27;33.17;;;-3.60;99.90;;;;;;4791416;30;20195;-85
2022/11/21 05:08:33;;;;;;;88.27;33.67;;;-3.70;99.90;;;;;;4792028;29;20212;-84
2022/11/21 05:13:45;;;;;;;90.27;32.97;;;-3.70;99.90;;;;;;4774964;30;20216;-85
2022/11/21 05:16:12;;;;;;;81.27;32.70;;;-3.70;99.90;;;;;;4775829;30;20569;-83
2022/11/21 05:18:38;;;;;;;86.57;33.67;;;-3.70;99.90;;;;;;4774889;30;20203;-83
2022/11/21 05:21:05;;;;;;;89.00;32.73;;;-3.70;99.90;;;;;;4788873;30;20670;-85
2022/11/21 05:23:32;;;;;;;79.60;32.33;;;-3.80;99.90;;;;;;4772650;29;20299;-83
2022/11/21 05:25:59;;;;;;;82.60;32.60;;;-3.80;99.90;;;;;;4788427;29;20215;-84
2022/11/21 05:28:26;;;;;;;85.10;32.90;;;-3.80;99.90;;;;;;4788373;29;20663;-84
2022/11/21 05:30:53;;;;;;;82.30;33.27;;;-3.80;99.90;;;;;;4772530;30;20212;-85
2022/11/21 05:33:20;;;;;;;82.87;32.93;;;-3.80;99.90;;;;;;4773372;30;20208;-85
2022/11/21 05:35:47;;;;;;;95.93;33.93;;;-3.90;99.90;;;;;;4758274;30;20232;-86
2022/11/21 05:38:14;;;;;;;83.47;32.40;;;-3.90;99.90;;;;;;4788534;29;20328;-87
2022/11/21 05:40:41;;;;;;;84.93;32.33;;;-3.90;99.90;;;;;;4772227;30;20212;-86
2022/11/21 05:45:56;;;;;;;82.73;32.77;;;-3.90;99.90;;;;;;4788258;29;20208;-85
2022/11/21 05:48:23;;;;;;;82.03;32.27;;;-4.00;99.90;;;;;;4772316;30;20196;-86
2022/11/21 05:50:50;;;;;;;87.90;33.00;;;-4.00;99.90;;;;;;4772075;30;20663;-84
2022/11/21 05:53:17;;;;;;;91.40;34.50;;;-3.90;99.90;;;;;;4772466;30;20212;-85
2022/11/21 05:55:44;;;;;;;83.17;32.70;;;-4.00;99.90;;;;;;4768701;30;20277;-84
2022/11/21 05:58:11;;;;;;;87.37;33.20;;;-3.90;99.90;;;;;;4784124;30;20201;-85
2022/11/21 06:00:38;;;;;;;80.13;31.20;;;-3.90;99.90;;;;;;4770567;30;20220;-85
2022/11/21 06:03:25;;;;;;;81.03;30.90;;;-3.90;99.90;;;;;;4770569;30;20723;-86
2022/11/21 06:06:10;;;;;;;85.43;32.60;;;-3.90;99.90;;;;;;4756674;30;20208;-85
2022/11/21 06:08:48;;;;;;;86.07;32.07;;;-3.90;99.90;;;;;;4769531;29;20250;-86
2022/11/21 06:11:16;;;;;;;90.40;33.57;;;-4.00;99.90;;;;;;4774529;30;20197;-85
2022/11/21 06:13:43;;;;;;;86.40;33.73;;;-4.00;99.90;;;;;;4769555;30;20569;-85
2022/11/21 06:16:15;;;;;;;87.73;33.80;;;-4.00;99.90;;;;;;4769099;30;20671;-85
2022/11/21 06:18:45;;;;;;;85.20;33.80;;;-4.00;99.90;;;;;;4769118;30;20678;-85
2022/11/21 06:21:19;;;;;;;84.90;32.53;;;-3.90;99.90;;;;;;4770591;30;20202;-87
2022/11/21 06:23:49;;;;;;;90.40;33.03;;;-4.00;99.90;;;;;;4770810;30;20205;-86
2022/11/21 06:26:24;;;;;;;84.73;34.03;;;-4.00;99.90;;;;;;4771818;30;20570;-84
2022/11/21 06:28:53;;;;;;;92.63;33.83;;;-3.90;99.90;;;;;;4768648;30;20216;-85
2022/11/21 06:31:25;;;;;;;93.17;35.07;;;-3.80;99.90;;;;;;4770257;29;20205;-86
2022/11/21 06:33:57;;;;;;;82.07;33.17;;;-3.80;99.90;;;;;;4768649;30;20201;-86
2022/11/21 06:36:25;;;;;;;91.53;34.07;;;-3.80;99.90;;;;;;4768729;30;20215;-86
2022/11/21 06:38:53;;;;;;;90.33;33.87;;;-3.70;99.90;;;;;;4769723;30;20660;-84
2022/11/21 06:41:22;;;;;;;78.57;32.50;;;-3.70;99.90;;;;;;4768693;30;20598;-84
2022/11/21 06:43:49;;;;;;;78.50;30.80;;;-3.70;99.90;;;;;;4768620;30;20204;-84
2022/11/21 06:46:17;;;;;;;83.20;32.07;;;-3.60;99.90;;;;;;4770378;29;20232;-82
2022/11/21 06:48:44;;;;;;;82.33;32.70;;;-3.40;99.90;;;;;;4770102;30;20201;-89
2022/11/21 06:51:20;;;;;;;80.00;30.77;;;-3.50;99.90;;;;;;4768897;30;20228;-87
2022/11/21 06:53:54;;;;;;;77.57;30.27;;;-3.40;99.90;;;;;;4772440;30;20210;-86
2022/11/21 06:56:23;;;;;;;75.87;31.57;;;-3.40;99.90;;;;;;4772477;30;20287;-88
2022/11/21 06:58:50;;;;;;;80.10;31.17;;;-3.40;99.90;;;;;;4772338;30;20209;-82
2022/11/21 07:01:17;;;;;;;82.47;32.00;;;-3.30;99.90;;;;;;4773876;30;20224;-85
2022/11/21 07:03:45;;;;;;;76.03;29.53;;;-3.30;99.90;;;;;;4777819;30;20243;-84
2022/11/21 07:06:11;;;;;;;75.23;30.30;;;-3.30;99.90;;;;;;4773416;30;20209;-85
2022/11/21 07:08:41;;;;;;;73.83;30.07;;;-3.20;99.90;;;;;;4772161;30;20667;-85
2022/11/21 07:11:11;;;;;;;75.67;29.90;;;-3.20;99.90;;;;;;4773633;29;20197;-84
2022/11/21 07:13:54;;;;;;;75.13;29.17;;;-3.10;99.90;;;;;;4772113;30;20209;-85
2022/11/21 07:16:20;;;;;;;74.90;29.97;;;-3.00;99.90;;;;;;4772232;30;20224;-87
2022/11/21 07:18:47;;;;;;;67.93;28.43;;;-3.00;99.90;;;;;;4772266;30;20773;-88
2022/11/21 07:21:14;;;;;;;75.23;28.70;;;-2.90;99.90;;;;;;4771623;30;20294;-88
2022/11/21 07:23:41;;;;;;;73.60;28.17;;;-2.60;99.90;;;;;;4771916;30;20571;-88
2022/11/21 07:26:09;;;;;;;70.70;28.50;;;-2.20;99.90;;;;;;4772829;30;20224;-88
2022/11/21 07:28:36;;;;;;;68.93;28.00;;;-1.90;99.90;;;;;;4773093;30;20229;-88
2022/11/21 07:31:03;;;;;;;67.13;27.50;;;-1.60;99.90;;;;;;4756778;30;20206;-90
2022/11/21 07:33:37;;;;;;;64.27;26.57;;;-1.30;99.90;;;;;;4773023;30;20208;-87
2022/11/21 07:36:04;;;;;;;63.53;26.10;;;-1.10;99.90;;;;;;4771793;30;20232;-86
2022/11/21 07:38:31;;;;;;;63.70;26.33;;;-0.90;99.90;;;;;;4773244;30;20284;-87
2022/11/21 07:40:58;;;;;;;67.70;27.20;;;-1.00;99.90;;;;;;4772702;30;20240;-87
2022/11/21 07:43:25;;;;;;;67.83;26.67;;;-1.00;99.90;;;;;;4772865;30;20618;-87
2022/11/21 07:45:52;;;;;;;85.77;31.13;;;-0.70;99.90;;;;;;4771559;30;20660;-86
2022/11/21 07:48:19;;;;;;;80.67;30.70;;;-0.70;99.90;;;;;;4774135;30;20191;-86
2022/11/21 07:50:46;;;;;;;83.80;31.83;;;-0.50;99.90;;;;;;4771626;30;20206;-87
2022/11/21 07:53:13;;;;;;;76.33;30.33;;;-0.30;99.90;;;;;;4775300;30;20662;-87
2022/11/21 07:55:40;;;;;;;74.30;30.90;;;-0.20;99.90;;;;;;4756565;30;20241;-87
2022/11/21 07:58:14;;;;;;;72.50;30.10;;;-0.20;99.90;;;;;;4772888;30;20217;-86
2022/11/21 08:00:41;;;;;;;76.47;32.10;;;-0.10;99.90;;;;;;4771345;30;20261;-87
2022/11/21 08:03:10;;;;;;;76.87;31.07;;;0.00;99.90;;;;;;4771557;30;20574;-88
2022/11/21 08:05:43;;;;;;;80.17;33.00;;;0.10;99.90;;;;;;4755513;30;20242;-87
2022/11/21 08:08:11;;;;;;;72.67;31.07;;;0.10;99.90;;;;;;4771184;30;20298;-87
2022/11/21 08:10:44;;;;;;;75.73;32.03;;;0.20;99.90;;;;;;4774482;29;20214;-86
2022/11/21 08:13:12;;;;;;;77.70;32.70;;;0.10;99.90;;;;;;4773027;30;20198;-87
2022/11/21 08:15:40;;;;;;;73.80;30.53;;;0.20;99.90;;;;;;4774352;29;20308;-85
2022/11/21 08:18:18;;;;;;;80.93;32.03;;;0.30;99.90;;;;;;4770948;30;20199;-88
2022/11/21 08:20:45;;;;;;;74.50;31.13;;;0.50;99.90;;;;;;4772364;30;20203;-88
2022/11/21 08:23:12;;;;;;;73.63;30.63;;;0.60;99.90;;;;;;4772695;30;20212;-86
2022/11/21 08:25:41;;;;;;;69.40;31.57;;;0.70;99.90;;;;;;4770963;30;20219;-88
2022/11/21 08:28:10;;;;;;;67.30;28.93;;;0.90;99.90;;;;;;4771919;30;20204;-87
2022/11/21 08:30:38;;;;;;;70.33;30.03;;;1.10;99.90;;;;;;4771921;30;20217;-85
2022/11/21 08:33:06;;;;;;;63.17;29.80;;;1.00;99.90;;;;;;4772241;30;20216;-88
2022/11/21 08:35:36;;;;;;;72.33;31.40;;;0.80;99.90;;;;;;4770453;30;20241;-88
2022/11/21 08:38:04;;;;;;;66.43;30.20;;;0.60;99.90;;;;;;4771066;30;20197;-86
2022/11/21 08:40:32;;;;;;;69.90;31.37;;;0.50;99.90;;;;;;4773533;30;20219;-85
2022/11/21 08:42:59;;;;;;;80.13;32.70;;;0.50;99.90;;;;;;4774775;30;20205;-84
2022/11/21 08:45:26;;;;;;;76.67;32.53;;;0.50;99.90;;;;;;4771169;30;20214;-87
2022/11/21 08:47:54;;;;;;;74.80;33.20;;;0.30;99.90;;;;;;4770287;30;20216;-85
2022/11/21 08:50:22;;;;;;;83.57;32.67;;;0.30;99.90;;;;;;4755716;30;20213;-88
2022/11/21 08:52:49;;;;;;;80.63;33.13;;;0.30;99.90;;;;;;4770478;30;20223;-88
2022/11/21 08:55:16;;;;;;;72.67;32.60;;;0.40;99.90;;;;;;4781771;29;20243;-89
2022/11/21 08:57:42;;;;;;;76.43;33.70;;;0.50;99.90;;;;;;4789645;30;20210;-89
2022/11/21 09:00:13;;;;;;;75.00;32.70;;;0.40;99.90;;;;;;4789705;29;20237;-89
2022/11/21 09:02:41;;;;;;;77.83;33.30;;;0.40;99.90;;;;;;4788230;29;20231;-89
2022/11/21 09:05:08;;;;;;;72.73;32.70;;;0.40;99.90;;;;;;4789253;29;20717;-87
2022/11/21 09:07:35;;;;;;;72.73;32.50;;;0.40;99.90;;;;;;4789436;30;20655;-85
2022/11/21 09:10:03;;;;;;;73.10;31.97;;;0.50;99.90;;;;;;4773482;30;20211;-86
2022/11/21 09:12:30;;;;;;;75.97;33.07;;;0.60;99.90;;;;;;4775556;30;20211;-88
2022/11/21 09:20:28;;;;;;;72.87;32.97;;;0.30;99.90;;;;;;4772884;30;20668;-87
2022/11/21 09:22:55;;;;;;;70.17;32.70;;;0.30;99.90;;;;;;4772859;29;20272;-86
2022/11/21 09:25:22;;;;;;;74.43;32.97;;;0.40;99.90;;;;;;4769686;29;20202;-88
2022/11/21 09:27:49;;;;;;;68.53;31.57;;;0.50;99.90;;;;;;4772580;30;20211;-87
2022/11/21 09:30:18;;;;;;;72.63;31.90;;;0.40;99.90;;;;;;4788835;29;20206;-90
2022/11/21 09:32:47;;;;;;;74.10;31.90;;;0.50;99.90;;;;;;4772611;30;20212;-89
2022/11/21 09:35:25;;;;;;;71.63;31.83;;;0.70;99.90;;;;;;4772402;30;20224;-89
2022/11/21 09:37:54;;;;;;;76.03;32.97;;;0.70;99.90;;;;;;4787021;30;20238;-81
2022/11/21 09:40:21;;;;;;;77.77;32.83;;;0.80;99.90;;;;;;4787796;29;20203;-82
2022/11/21 09:43:18;;;;;;;71.93;32.43;;;0.80;99.90;;;;;;4788622;30;20306;-84
2022/11/21 09:45:49;;;;;;;72.57;31.03;;;0.90;99.90;;;;;;4788310;29;20275;-82
2022/11/21 09:48:59;;;;;;;72.17;32.73;;;0.80;99.90;;;;;;4788369;30;20285;-85
2022/11/21 09:51:29;;;;;;;70.70;29.63;;;0.90;99.90;;;;;;4718747;30;20214;-88
2022/11/21 09:54:22;;;;;;;69.50;31.47;;;0.90;99.90;;;;;;4732656;30;20266;-85
2022/11/21 09:56:51;;;;;;;66.37;30.17;;;0.90;99.90;;;;;;4718306;30;20245;-85
2022/11/21 09:59:39;;;;;;;68.47;30.43;;;0.90;99.90;;;;;;4732666;30;20237;-88
2022/11/21 10:02:14;;;;;;;66.67;30.00;;;1.00;99.90;;;;;;4732953;30;20224;-85
2022/11/21 10:04:45;;;;;;;70.70;29.37;;;1.00;99.90;;;;;;4718949;30;20216;-85
2022/11/21 10:07:22;;;;;;;64.07;28.90;;;1.10;99.90;;;;;;4718506;30;20202;-85
2022/11/21 10:10:38;;;;;;;61.03;28.23;;;1.10;99.90;;;;;;4725087;30;20222;-85
2022/11/21 10:13:26;;;;;;;60.37;27.43;;;1.10;99.90;;;;;;4733158;30;20218;-86
2022/11/21 10:16:17;;;;;;;59.53;27.50;;;1.00;99.90;;;;;;4732755;30;20338;-86
2022/11/21 10:19:05;;;;;;;60.70;26.77;;;1.00;99.90;;;;;;4733565;30;20263;-86
2022/11/21 10:21:44;;;;;;;59.83;26.03;;;1.00;99.90;;;;;;4730951;30;20667;-84
2022/11/21 10:24:30;;;;;;;59.77;27.10;;;1.00;99.90;;;;;;4771572;30;20532;-86
2022/11/21 10:27:17;;;;;;;62.33;27.40;;;1.10;99.90;;;;;;4787479;29;20211;-84
2022/11/21 10:29:59;;;;;;;59.33;25.50;;;1.10;99.90;;;;;;4771304;30;20239;-85
2022/11/21 10:32:34;;;;;;;52.07;24.80;;;1.00;99.90;;;;;;4771546;30;20284;-82
2022/11/21 10:35:14;;;;;;;53.90;23.43;;;1.10;99.90;;;;;;4774447;30;20210;-83
2022/11/21 10:37:48;;;;;;;54.73;23.97;;;1.00;99.90;;;;;;4776832;30;20210;-83
2022/11/21 10:40:39;;;;;;;55.30;24.23;;;1.00;99.90;;;;;;4791844;29;20255;-83
2022/11/21 10:46:10;;;;;;;51.83;22.30;;;1.10;99.90;;;;;;4787476;29;20211;-84
2022/11/21 10:48:37;;;;;;;53.10;22.97;;;1.10;99.90;;;;;;4772139;30;20234;-83
2022/11/21 10:51:29;;;;;;;49.33;22.90;;;1.00;99.90;;;;;;4788113;29;20295;-84
2022/11/21 10:56:58;;;;;;;56.23;23.53;;;1.20;99.90;;;;;;4771392;30;20240;-87
2022/11/21 10:59:28;;;;;;;49.70;23.03;;;1.20;99.90;;;;;;4771473;30;20209;-86
2022/11/21 11:02:22;;;;;;;52.77;23.93;;;1.40;99.90;;;;;;4787211;30;20268;-83
2022/11/21 11:05:17;;;;;;;58.37;23.47;;;1.40;99.90;;;;;;4788946;30;20278;-84
2022/11/21 11:08:05;;;;;;;48.00;23.13;;;1.40;99.90;;;;;;4772997;30;20210;-86
2022/11/21 11:10:36;;;;;;;56.90;24.80;;;1.50;99.90;;;;;;4771317;30;20223;-84
2022/11/21 11:16:15;;;;;;;52.73;22.80;;;1.60;99.90;;;;;;4786204;29;20231;-82
2022/11/21 11:19:07;;;;;;;48.93;22.70;;;1.80;99.90;;;;;;4771402;30;20307;-85
2022/11/21 11:21:44;;;;;;;47.23;21.30;;;1.80;99.90;;;;;;4787251;29;20207;-83
2022/11/21 11:24:11;;;;;;;50.37;21.90;;;1.80;99.90;;;;;;4787283;29;20253;-82
2022/11/21 11:26:48;;;;;;;48.50;21.20;;;2.10;99.90;;;;;;4757663;30;20216;-82
2022/11/21 11:29:43;;;;;;;47.47;21.97;;;2.50;99.90;;;;;;4774388;30;20204;-84
2022/11/21 11:32:17;;;;;;;42.53;21.33;;;3.10;99.90;;;;;;4788697;29;20706;-85
2022/11/21 11:35:16;;;;;;;43.80;20.47;;;3.60;99.90;;;;;;4771450;30;20584;-85
2022/11/21 11:37:59;;;;;;;48.00;21.10;;;3.70;99.90;;;;;;4771234;30;20712;-84
2022/11/21 11:40:31;;;;;;;45.97;20.70;;;3.70;99.90;;;;;;4788694;29;20199;-86
2022/11/21 11:49:08;;;;;;;47.27;21.27;;;4.00;99.90;;;;;;4774266;30;20215;-85
2022/11/21 11:51:58;;;;;;;43.80;21.53;;;3.80;99.90;;;;;;4790537;30;20205;-82
2022/11/21 11:54:49;;;;;;;43.53;20.67;;;3.60;99.90;;;;;;4773690;30;20264;-84
2022/11/21 11:57:17;;;;;;;42.23;19.50;;;3.60;99.90;;;;;;4789874;29;20312;-81
2022/11/21 11:59:52;;;;;;;38.63;19.10;;;3.40;99.90;;;;;;4774325;30;20204;-83
2022/11/21 12:02:18;;;;;;;46.03;19.70;;;3.30;99.90;;;;;;4790213;30;20192;-83
2022/11/21 12:04:51;;;;;;;47.13;20.40;;;3.20;99.90;;;;;;4789812;29;20664;-81
2022/11/21 12:07:28;;;;;;;42.17;18.43;;;3.30;99.90;;;;;;4790597;29;20204;-82
2022/11/21 12:13:36;;;;;;;41.73;19.27;;;3.60;99.90;;;;;;4773013;30;20240;-83
2022/11/21 12:16:09;;;;;;;43.07;20.60;;;3.50;99.90;;;;;;4773266;30;20250;-83
2022/11/21 12:18:54;;;;;;;39.27;19.37;;;3.60;99.90;;;;;;4773302;30;20656;-82
2022/11/21 12:21:22;;;;;;;42.77;19.77;;;3.50;99.90;;;;;;4773258;30;20686;-82
2022/11/21 12:23:50;;;;;;;42.47;19.47;;;3.50;99.90;;;;;;4773172;30;20210;-82
2022/11/21 12:26:32;;;;;;;46.60;19.60;;;3.40;99.90;;;;;;4773397;30;20200;-83
2022/11/21 12:28:59;;;;;;;46.97;21.27;;;3.20;99.90;;;;;;4773401;30;20213;-86
2022/11/21 12:31:45;;;;;;;46.60;20.40;;;3.10;99.90;;;;;;4789706;30;20283;-86
2022/11/21 12:34:36;;;;;;;49.43;20.90;;;3.00;99.90;;;;;;4773096;30;20227;-84
2022/11/21 12:37:37;;;;;;;50.13;20.77;;;3.00;99.90;;;;;;4789091;29;20295;-84
2022/11/21 12:40:15;;;;;;;50.07;21.10;;;3.00;99.90;;;;;;4773134;29;20202;-84
2022/11/21 12:42:57;;;;;;;47.13;20.83;;;3.00;99.90;;;;;;4772491;30;20213;-84
2022/11/21 12:45:37;;;;;;;51.50;21.00;;;3.10;99.90;;;;;;4788803;29;20249;-84
2022/11/21 12:54:41;;;;;;;53.20;21.90;;;2.80;99.90;;;;;;4772494;30;20236;-83
2022/11/21 12:57:16;;;;;;;47.47;21.20;;;2.50;99.90;;;;;;4772494;30;20231;-81
2022/11/21 13:00:13;;;;;;;48.90;21.53;;;2.30;99.90;;;;;;4772793;30;20208;-82
2022/11/21 13:03:02;;;;;;;51.33;21.57;;;2.20;99.90;;;;;;4772670;30;20212;-83
2022/11/21 13:05:34;;;;;;;53.07;22.47;;;2.20;99.90;;;;;;4772492;30;20215;-83
2022/11/21 13:08:08;;;;;;;49.83;22.83;;;2.10;99.90;;;;;;4772543;30;20217;-83
2022/11/21 13:10:37;;;;;;;49.47;21.50;;;2.10;99.90;;;;;;4772374;30;20204;-84
2022/11/21 13:13:22;;;;;;;52.27;22.43;;;2.10;99.90;;;;;;4772833;30;20204;-87
2022/11/21 13:16:35;;;;;;;55.67;23.57;;;2.20;99.90;;;;;;4772441;30;20233;-86
2022/11/21 13:19:22;;;;;;;51.37;21.90;;;2.20;99.90;;;;;;4774609;30;20216;-84
2022/11/21 13:21:52;;;;;;;49.07;21.70;;;2.10;99.90;;;;;;4774308;30;20196;-85
2022/11/21 13:24:44;;;;;;;59.67;22.73;;;2.20;99.90;;;;;;4772609;29;20219;-87
2022/11/21 13:27:33;;;;;;;56.87;23.57;;;2.20;99.90;;;;;;4770908;30;20659;-85
2022/11/21 13:30:08;;;;;;;50.37;21.83;;;2.20;99.90;;;;;;4772608;30;20231;-86
2022/11/21 13:32:45;;;;;;;51.63;22.37;;;2.40;99.90;;;;;;4786937;30;20658;-83